LGKF/EFL METAR and TAF weather

Enter ICAO airport designator
Station Type Date Time Source
LGKF METAR 2021/03/03 14:50 UTC NOAA

LGKF 031450Z 33007KT CAVOK 18/05 Q1028


Station Type Date Time Source
LGKF Decoded METAR 2021/03/03 14:50 UTC NOAA

Kefalhnia Airport , Greece (LGKF) 38-07N 020-30E 22M
Mar 03, 2021 - 09:50 AM EST / 2021.03.03 1450 UTC
Wind: from the NNW (330 degrees) at 8 MPH (7 KT):0
Visibility: greater than 7 mile(s):0
Temperature: 64 F (18 C)
Dew Point: 41 F (5 C)
Relative Humidity: 42%
Pressure (altimeter): 30.36 in. Hg (1028 hPa)
ob: LGKF 031450Z 33007KT CAVOK 18/05 Q1028
cycle: 15

Station Type Date Time Source
LGKF TAF 2011/03/20 15:06 UTC NOAA

TAF LGKF 201400Z 2015/2103 05012KT 9999 FEW020 SCT080 PROB30
TEMPO 2015/2003 6000 RA SCT020 BKN060 PROB30
TEMPO 2015/2021 4000 TSRA SCT015 FEW018CB BKN025

Example: see airport list